sensor_id;sensor_type;location;lat;lon;timestamp;temperature;humidity
1351;DHT22;669;50.206;9.998;2024-03-23T00:53:25;5.30;16.00
1351;DHT22;669;50.206;9.998;2024-03-23T00:55:52;5.10;16.10
1351;DHT22;669;50.206;9.998;2024-03-23T00:58:18;5.10;16.50
1351;DHT22;669;50.206;9.998;2024-03-23T01:00:45;5.00;16.80
1351;DHT22;669;50.206;9.998;2024-03-23T01:03:12;5.00;17.20
1351;DHT22;669;50.206;9.998;2024-03-23T01:05:39;5.00;17.60
1351;DHT22;669;50.206;9.998;2024-03-23T01:08:05;5.00;18.10
1351;DHT22;669;50.206;9.998;2024-03-23T01:10:34;5.00;18.20
1351;DHT22;669;50.206;9.998;2024-03-23T01:13:00;5.00;18.70
1351;DHT22;669;50.206;9.998;2024-03-23T01:15:27;5.10;19.10
1351;DHT22;669;50.206;9.998;2024-03-23T01:17:53;5.10;19.00
1351;DHT22;669;50.206;9.998;2024-03-23T01:20:20;5.10;19.10
1351;DHT22;669;50.206;9.998;2024-03-23T01:22:46;5.10;18.40
1351;DHT22;669;50.206;9.998;2024-03-23T01:25:13;5.10;18.30
1351;DHT22;669;50.206;9.998;2024-03-23T01:27:40;5.10;18.30
1351;DHT22;669;50.206;9.998;2024-03-23T01:30:08;5.10;18.90
1351;DHT22;669;50.206;9.998;2024-03-23T01:32:34;5.10;19.10
1351;DHT22;669;50.206;9.998;2024-03-23T01:35:01;5.20;19.40
1351;DHT22;669;50.206;9.998;2024-03-23T01:37:27;5.20;17.60
1351;DHT22;669;50.206;9.998;2024-03-23T01:39:54;5.10;17.90
1351;DHT22;669;50.206;9.998;2024-03-23T01:42:20;5.00;15.50
1351;DHT22;669;50.206;9.998;2024-03-23T01:44:48;4.90;16.40
1351;DHT22;669;50.206;9.998;2024-03-23T01:47:14;4.80;17.10
1351;DHT22;669;50.206;9.998;2024-03-23T01:49:41;4.80;17.90
1351;DHT22;669;50.206;9.998;2024-03-23T01:52:07;4.80;19.00
1351;DHT22;669;50.206;9.998;2024-03-23T01:54:35;4.80;20.40
1351;DHT22;669;50.206;9.998;2024-03-23T01:57:01;4.90;21.20
1351;DHT22;669;50.206;9.998;2024-03-23T01:59:28;5.00;21.20
1351;DHT22;669;50.206;9.998;2024-03-23T02:01:55;5.00;21.20
1351;DHT22;669;50.206;9.998;2024-03-23T02:04:22;5.00;19.10
1351;DHT22;669;50.206;9.998;2024-03-23T02:06:48;5.00;18.60
1351;DHT22;669;50.206;9.998;2024-03-23T02:09:15;4.90;17.90
1351;DHT22;669;50.206;9.998;2024-03-23T02:11:41;4.80;18.00
1351;DHT22;669;50.206;9.998;2024-03-23T02:14:08;4.80;18.50
1351;DHT22;669;50.206;9.998;2024-03-23T02:16:34;4.70;18.90
1351;DHT22;669;50.206;9.998;2024-03-23T02:19:02;4.70;18.90
1351;DHT22;669;50.206;9.998;2024-03-23T02:21:28;4.60;19.10
1351;DHT22;669;50.206;9.998;2024-03-23T02:23:59;4.60;19.80
1351;DHT22;669;50.206;9.998;2024-03-23T02:26:25;4.60;20.40
1351;DHT22;669;50.206;9.998;2024-03-23T02:28:52;4.70;21.00
1351;DHT22;669;50.206;9.998;2024-03-23T02:31:18;4.80;22.70
1351;DHT22;669;50.206;9.998;2024-03-23T02:33:45;5.00;23.00
1351;DHT22;669;50.206;9.998;2024-03-23T02:36:11;5.10;23.40
1351;DHT22;669;50.206;9.998;2024-03-23T02:38:38;5.20;23.40
1351;DHT22;669;50.206;9.998;2024-03-23T02:41:06;5.30;23.60
1351;DHT22;669;50.206;9.998;2024-03-23T02:43:33;5.40;23.30
1351;DHT22;669;50.206;9.998;2024-03-23T02:45:58;5.40;22.30
1351;DHT22;669;50.206;9.998;2024-03-23T02:48:26;5.40;22.50
1351;DHT22;669;50.206;9.998;2024-03-23T02:50:52;5.40;22.20
1351;DHT22;669;50.206;9.998;2024-03-23T02:53:20;5.40;22.20
1351;DHT22;669;50.206;9.998;2024-03-23T02:55:46;5.40;22.00
1351;DHT22;669;50.206;9.998;2024-03-23T02:58:14;5.40;22.40
1351;DHT22;669;50.206;9.998;2024-03-23T03:00:40;5.50;23.80
1351;DHT22;669;50.206;9.998;2024-03-23T03:03:07;5.50;23.40
1351;DHT22;669;50.206;9.998;2024-03-23T03:05:34;5.60;24.30
1351;DHT22;669;50.206;9.998;2024-03-23T03:08:01;5.70;25.20
1351;DHT22;669;50.206;9.998;2024-03-23T03:10:27;5.70;24.40
1351;DHT22;669;50.206;9.998;2024-03-23T03:12:54;5.70;24.10
1351;DHT22;669;50.206;9.998;2024-03-23T03:15:22;5.70;23.90
1351;DHT22;669;50.206;9.998;2024-03-23T03:17:49;5.70;24.30
1351;DHT22;669;50.206;9.998;2024-03-23T03:20:15;5.80;24.30
1351;DHT22;669;50.206;9.998;2024-03-23T03:22:43;5.80;24.70
1351;DHT22;669;50.206;9.998;2024-03-23T03:25:09;5.80;25.00
1351;DHT22;669;50.206;9.998;2024-03-23T03:27:36;5.90;25.10
1351;DHT22;669;50.206;9.998;2024-03-23T03:30:02;5.90;25.20
1351;DHT22;669;50.206;9.998;2024-03-23T03:32:33;6.00;25.20
1351;DHT22;669;50.206;9.998;2024-03-23T03:34:59;6.00;25.20
1351;DHT22;669;50.206;9.998;2024-03-23T03:37:26;6.10;25.70
1351;DHT22;669;50.206;9.998;2024-03-23T03:39:52;6.20;26.00
1351;DHT22;669;50.206;9.998;2024-03-23T03:42:19;6.20;25.40
1351;DHT22;669;50.206;9.998;2024-03-23T03:44:45;6.30;24.90
1351;DHT22;669;50.206;9.998;2024-03-23T03:47:12;6.30;24.80
1351;DHT22;669;50.206;9.998;2024-03-23T03:49:39;6.30;24.70
1351;DHT22;669;50.206;9.998;2024-03-23T03:52:06;6.30;24.70
1351;DHT22;669;50.206;9.998;2024-03-23T03:54:33;6.30;25.00
1351;DHT22;669;50.206;9.998;2024-03-23T03:57:00;6.40;25.10
1351;DHT22;669;50.206;9.998;2024-03-23T03:59:26;6.40;24.20
1351;DHT22;669;50.206;9.998;2024-03-23T04:01:53;6.40;23.00
1351;DHT22;669;50.206;9.998;2024-03-23T04:04:19;6.30;23.50
1351;DHT22;669;50.206;9.998;2024-03-23T04:06:47;6.30;24.10
1351;DHT22;669;50.206;9.998;2024-03-23T04:09:13;6.30;23.80
1351;DHT22;669;50.206;9.998;2024-03-23T04:11:40;6.30;24.30
1351;DHT22;669;50.206;9.998;2024-03-23T04:14:07;6.20;24.20
1351;DHT22;669;50.206;9.998;2024-03-23T04:16:34;6.20;24.60
1351;DHT22;669;50.206;9.998;2024-03-23T04:19:01;6.20;24.70
1351;DHT22;669;50.206;9.998;2024-03-23T04:21:27;6.30;24.30
1351;DHT22;669;50.206;9.998;2024-03-23T04:23:56;6.30;24.10
1351;DHT22;669;50.206;9.998;2024-03-23T04:26:22;6.30;23.60
1351;DHT22;669;50.206;9.998;2024-03-23T04:28:49;6.30;23.70
1351;DHT22;669;50.206;9.998;2024-03-23T04:31:15;6.30;23.70
1351;DHT22;669;50.206;9.998;2024-03-23T04:33:42;6.20;23.30
1351;DHT22;669;50.206;9.998;2024-03-23T04:36:08;6.20;23.60
1351;DHT22;669;50.206;9.998;2024-03-23T04:38:35;6.10;24.30
1351;DHT22;669;50.206;9.998;2024-03-23T04:41:04;6.10;24.80
1351;DHT22;669;50.206;9.998;2024-03-23T04:43:31;6.20;25.10
1351;DHT22;669;50.206;9.998;2024-03-23T04:45:58;6.20;24.60
1351;DHT22;669;50.206;9.998;2024-03-23T04:48:25;6.20;25.10
1351;DHT22;669;50.206;9.998;2024-03-23T04:50:55;6.20;25.40
1351;DHT22;669;50.206;9.998;2024-03-23T04:53:23;6.20;25.40
1351;DHT22;669;50.206;9.998;2024-03-23T04:55:54;6.20;24.80
1351;DHT22;669;50.206;9.998;2024-03-23T04:58:22;6.10;24.80
1351;DHT22;669;50.206;9.998;2024-03-23T05:00:53;6.20;25.10
1351;DHT22;669;50.206;9.998;2024-03-23T05:03:20;6.20;25.70
1351;DHT22;669;50.206;9.998;2024-03-23T05:05:47;6.20;24.80
1351;DHT22;669;50.206;9.998;2024-03-23T05:08:14;6.20;24.40
1351;DHT22;669;50.206;9.998;2024-03-23T05:10:41;6.20;24.10
1351;DHT22;669;50.206;9.998;2024-03-23T05:13:08;6.20;24.20
1351;DHT22;669;50.206;9.998;2024-03-23T05:15:35;6.20;24.30
1351;DHT22;669;50.206;9.998;2024-03-23T05:18:02;6.20;24.50
1351;DHT22;669;50.206;9.998;2024-03-23T05:20:29;6.10;25.00
1351;DHT22;669;50.206;9.998;2024-03-23T05:22:55;6.20;25.30
1351;DHT22;669;50.206;9.998;2024-03-23T05:25:21;6.20;25.50
1351;DHT22;669;50.206;9.998;2024-03-23T05:27:49;6.20;25.20
1351;DHT22;669;50.206;9.998;2024-03-23T05:30:15;6.30;26.00
1351;DHT22;669;50.206;9.998;2024-03-23T05:32:43;6.30;26.70
1351;DHT22;669;50.206;9.998;2024-03-23T05:35:10;6.50;28.40
1351;DHT22;669;50.206;9.998;2024-03-23T05:37:37;6.70;29.90
1351;DHT22;669;50.206;9.998;2024-03-23T05:40:04;6.90;30.40
1351;DHT22;669;50.206;9.998;2024-03-23T05:42:31;7.00;30.90
1351;DHT22;669;50.206;9.998;2024-03-23T05:44:57;7.20;31.30
1351;DHT22;669;50.206;9.998;2024-03-23T05:47:24;7.40;29.90
1351;DHT22;669;50.206;9.998;2024-03-23T05:49:51;7.40;27.80
1351;DHT22;669;50.206;9.998;2024-03-23T05:52:18;7.40;26.50
1351;DHT22;669;50.206;9.998;2024-03-23T05:54:46;7.40;25.70
1351;DHT22;669;50.206;9.998;2024-03-23T05:57:13;7.20;26.10
1351;DHT22;669;50.206;9.998;2024-03-23T05:59:39;7.20;26.40
1351;DHT22;669;50.206;9.998;2024-03-23T06:02:06;7.20;28.00
1351;DHT22;669;50.206;9.998;2024-03-23T06:04:32;7.30;30.30
1351;DHT22;669;50.206;9.998;2024-03-23T06:07:01;7.30;31.90
1351;DHT22;669;50.206;9.998;2024-03-23T06:09:27;7.40;34.20
1351;DHT22;669;50.206;9.998;2024-03-23T06:11:57;7.50;35.70
1351;DHT22;669;50.206;9.998;2024-03-23T06:14:23;7.70;37.60
1351;DHT22;669;50.206;9.998;2024-03-23T06:16:50;7.80;37.00
1351;DHT22;669;50.206;9.998;2024-03-23T06:19:16;7.90;36.20
1351;DHT22;669;50.206;9.998;2024-03-23T06:21:43;8.00;34.00
1351;DHT22;669;50.206;9.998;2024-03-23T06:24:11;8.00;30.50
1351;DHT22;669;50.206;9.998;2024-03-23T06:26:38;8.00;27.80
1351;DHT22;669;50.206;9.998;2024-03-23T06:29:04;8.00;28.30
1351;DHT22;669;50.206;9.998;2024-03-23T06:31:31;8.00;26.90
1351;DHT22;669;50.206;9.998;2024-03-23T06:33:57;8.00;26.90
1351;DHT22;669;50.206;9.998;2024-03-23T06:36:24;8.00;27.00
1351;DHT22;669;50.206;9.998;2024-03-23T06:38:50;8.00;26.40
1351;DHT22;669;50.206;9.998;2024-03-23T06:41:19;8.00;26.60
1351;DHT22;669;50.206;9.998;2024-03-23T06:43:45;8.00;26.30
1351;DHT22;669;50.206;9.998;2024-03-23T06:46:12;8.00;25.50
1351;DHT22;669;50.206;9.998;2024-03-23T06:48:38;8.00;25.50
1351;DHT22;669;50.206;9.998;2024-03-23T06:51:05;8.00;25.40
1351;DHT22;669;50.206;9.998;2024-03-23T06:53:32;8.00;24.90
1351;DHT22;669;50.206;9.998;2024-03-23T06:55:59;8.00;23.10
1351;DHT22;669;50.206;9.998;2024-03-23T06:58:28;7.90;22.10
1351;DHT22;669;50.206;9.998;2024-03-23T07:00:55;7.80;20.40
1351;DHT22;669;50.206;9.998;2024-03-23T07:03:20;7.70;18.50
1351;DHT22;669;50.206;9.998;2024-03-23T07:05:48;7.60;19.50
1351;DHT22;669;50.206;9.998;2024-03-23T07:08:14;7.50;16.80
1351;DHT22;669;50.206;9.998;2024-03-23T07:10:46;7.40;16.40
1351;DHT22;669;50.206;9.998;2024-03-23T07:13:12;7.30;16.10
1351;DHT22;669;50.206;9.998;2024-03-23T07:15:41;7.20;16.90
1351;DHT22;669;50.206;9.998;2024-03-23T07:18:07;7.10;14.70
1351;DHT22;669;50.206;9.998;2024-03-23T07:20:34;7.10;12.60
1351;DHT22;669;50.206;9.998;2024-03-23T07:23:00;6.90;9.50
1351;DHT22;669;50.206;9.998;2024-03-23T07:25:27;6.70;10.60
1351;DHT22;669;50.206;9.998;2024-03-23T07:27:54;6.60;11.80
1351;DHT22;669;50.206;9.998;2024-03-23T07:30:21;6.60;11.10
1351;DHT22;669;50.206;9.998;2024-03-23T07:32:49;6.60;10.10
1351;DHT22;669;50.206;9.998;2024-03-23T07:35:16;6.50;10.50
1351;DHT22;669;50.206;9.998;2024-03-23T07:37:42;6.50;7.30
1351;DHT22;669;50.206;9.998;2024-03-23T07:40:10;6.50;8.60
1351;DHT22;669;50.206;9.998;2024-03-23T07:42:37;6.70;7.10
1351;DHT22;669;50.206;9.998;2024-03-23T07:45:05;6.80;6.40
1351;DHT22;669;50.206;9.998;2024-03-23T07:47:32;6.70;7.20
1351;DHT22;669;50.206;9.998;2024-03-23T07:50:00;6.80;6.40
1351;DHT22;669;50.206;9.998;2024-03-23T07:52:28;6.80;7.70
1351;DHT22;669;50.206;9.998;2024-03-23T07:54:55;6.80;7.60
1351;DHT22;669;50.206;9.998;2024-03-23T07:57:21;6.70;6.40
1351;DHT22;669;50.206;9.998;2024-03-23T07:59:48;6.70;6.80
1351;DHT22;669;50.206;9.998;2024-03-23T08:02:14;6.70;7.60
1351;DHT22;669;50.206;9.998;2024-03-23T08:04:41;6.70;8.20
1351;DHT22;669;50.206;9.998;2024-03-23T08:07:08;6.70;6.90
1351;DHT22;669;50.206;9.998;2024-03-23T08:09:35;6.60;7.10
1351;DHT22;669;50.206;9.998;2024-03-23T08:12:01;6.60;6.30
1351;DHT22;669;50.206;9.998;2024-03-23T08:14:28;6.70;6.40
1351;DHT22;669;50.206;9.998;2024-03-23T08:16:54;6.90;7.80
1351;DHT22;669;50.206;9.998;2024-03-23T08:19:21;7.30;6.50
1351;DHT22;669;50.206;9.998;2024-03-23T08:21:48;7.50;3.30
1351;DHT22;669;50.206;9.998;2024-03-23T08:24:17;7.50;2.80
1351;DHT22;669;50.206;9.998;2024-03-23T08:26:43;7.40;2.20
1351;DHT22;669;50.206;9.998;2024-03-23T08:29:10;7.30;2.40
1351;DHT22;669;50.206;9.998;2024-03-23T08:31:36;7.40;1.40
1351;DHT22;669;50.206;9.998;2024-03-23T08:34:03;7.40;2.50
1351;DHT22;669;50.206;9.998;2024-03-23T08:36:29;7.30;3.30
1351;DHT22;669;50.206;9.998;2024-03-23T08:38:56;7.50;4.00
1351;DHT22;669;50.206;9.998;2024-03-23T08:41:23;7.80;1.00
1351;DHT22;669;50.206;9.998;2024-03-23T08:43:51;8.20;1.00
1351;DHT22;669;50.206;9.998;2024-03-23T08:46:17;8.20;1.00
1351;DHT22;669;50.206;9.998;2024-03-23T08:48:45;8.10;1.00
1351;DHT22;669;50.206;9.998;2024-03-23T08:51:13;8.10;1.00
1351;DHT22;669;50.206;9.998;2024-03-23T08:53:40;8.00;1.00
1351;DHT22;669;50.206;9.998;2024-03-23T08:56:08;8.10;1.00
1351;DHT22;669;50.206;9.998;2024-03-23T08:58:37;8.10;1.00
1351;DHT22;669;50.206;9.998;2024-03-23T09:01:06;8.30;1.00
1351;DHT22;669;50.206;9.998;2024-03-23T09:03:33;8.20;1.00
1351;DHT22;669;50.206;9.998;2024-03-23T09:05:59;8.10;1.00
1351;DHT22;669;50.206;9.998;2024-03-23T09:08:27;8.40;1.00
1351;DHT22;669;50.206;9.998;2024-03-23T09:10:53;8.40;1.00
1351;DHT22;669;50.206;9.998;2024-03-23T09:13:20;9.10;1.00
1351;DHT22;669;50.206;9.998;2024-03-23T09:15:49;9.50;1.00
1351;DHT22;669;50.206;9.998;2024-03-23T09:18:16;9.50;1.00
1351;DHT22;669;50.206;9.998;2024-03-23T09:20:42;9.50;1.00
1351;DHT22;669;50.206;9.998;2024-03-23T09:23:09;9.40;1.00
1351;DHT22;669;50.206;9.998;2024-03-23T09:25:39;9.90;1.00
1351;DHT22;669;50.206;9.998;2024-03-23T09:28:06;10.00;1.00
1351;DHT22;669;50.206;9.998;2024-03-23T09:30:35;10.00;1.00
1351;DHT22;669;50.206;9.998;2024-03-23T09:33:09;9.90;1.00
1351;DHT22;669;50.206;9.998;2024-03-23T09:35:37;9.70;1.00
1351;DHT22;669;50.206;9.998;2024-03-23T09:38:04;9.60;1.00
1351;DHT22;669;50.206;9.998;2024-03-23T09:40:31;9.50;1.00
1351;DHT22;669;50.206;9.998;2024-03-23T09:42:58;9.80;1.00
1351;DHT22;669;50.206;9.998;2024-03-23T09:45:27;9.90;1.00
1351;DHT22;669;50.206;9.998;2024-03-23T09:47:55;9.90;1.00
1351;DHT22;669;50.206;9.998;2024-03-23T09:50:23;9.80;1.00
1351;DHT22;669;50.206;9.998;2024-03-23T09:52:50;9.70;1.00
1351;DHT22;669;50.206;9.998;2024-03-23T09:55:16;9.60;1.00
1351;DHT22;669;50.206;9.998;2024-03-23T09:57:43;9.70;1.00
1351;DHT22;669;50.206;9.998;2024-03-23T10:00:10;9.90;1.00
1351;DHT22;669;50.206;9.998;2024-03-23T10:02:38;10.00;1.00
1351;DHT22;669;50.206;9.998;2024-03-23T10:05:05;10.20;1.00
1351;DHT22;669;50.206;9.998;2024-03-23T10:07:48;10.10;1.00
1351;DHT22;669;50.206;9.998;2024-03-23T10:10:16;9.80;1.00
1351;DHT22;669;50.206;9.998;2024-03-23T10:12:47;9.90;1.00
1351;DHT22;669;50.206;9.998;2024-03-23T10:15:21;9.50;1.00
1351;DHT22;669;50.206;9.998;2024-03-23T10:17:48;9.40;1.00
1351;DHT22;669;50.206;9.998;2024-03-23T10:20:19;9.20;1.00
1351;DHT22;669;50.206;9.998;2024-03-23T10:22:49;9.00;1.00
1351;DHT22;669;50.206;9.998;2024-03-23T10:25:15;8.90;1.00
1351;DHT22;669;50.206;9.998;2024-03-23T10:27:42;8.70;1.00
1351;DHT22;669;50.206;9.998;2024-03-23T10:30:10;8.40;1.00
1351;DHT22;669;50.206;9.998;2024-03-23T10:32:38;8.80;1.00
1351;DHT22;669;50.206;9.998;2024-03-23T10:35:17;9.30;1.00
1351;DHT22;669;50.206;9.998;2024-03-23T10:37:47;9.70;1.00
1351;DHT22;669;50.206;9.998;2024-03-23T10:40:17;10.00;1.00
1351;DHT22;669;50.206;9.998;2024-03-23T10:42:45;10.20;1.00
1351;DHT22;669;50.206;9.998;2024-03-23T10:45:11;10.10;1.00
1351;DHT22;669;50.206;9.998;2024-03-23T10:47:38;10.20;1.00
1351;DHT22;669;50.206;9.998;2024-03-23T10:50:05;9.90;1.00
1351;DHT22;669;50.206;9.998;2024-03-23T10:52:32;10.00;1.00
1351;DHT22;669;50.206;9.998;2024-03-23T10:55:03;10.30;1.00
1351;DHT22;669;50.206;9.998;2024-03-23T10:57:36;11.00;1.00
1351;DHT22;669;50.206;9.998;2024-03-23T11:00:04;11.70;1.00
1351;DHT22;669;50.206;9.998;2024-03-23T11:02:32;12.00;1.00
1351;DHT22;669;50.206;9.998;2024-03-23T11:04:58;12.30;1.00
1351;DHT22;669;50.206;9.998;2024-03-23T11:07:29;12.30;1.00
1351;DHT22;669;50.206;9.998;2024-03-23T11:09:56;12.40;1.00
1351;DHT22;669;50.206;9.998;2024-03-23T11:12:31;12.60;1.00
1351;DHT22;669;50.206;9.998;2024-03-23T11:15:02;12.50;1.00
1351;DHT22;669;50.206;9.998;2024-03-23T11:17:30;12.10;1.00
1351;DHT22;669;50.206;9.998;2024-03-23T11:19:57;11.70;1.00
1351;DHT22;669;50.206;9.998;2024-03-23T11:22:41;11.90;1.00
1351;DHT22;669;50.206;9.998;2024-03-23T11:25:18;12.70;1.00
1351;DHT22;669;50.206;9.998;2024-03-23T11:27:49;13.20;1.00
1351;DHT22;669;50.206;9.998;2024-03-23T11:30:16;13.40;1.00
1351;DHT22;669;50.206;9.998;2024-03-23T11:32:44;12.90;1.00
1351;DHT22;669;50.206;9.998;2024-03-23T11:35:24;12.70;1.00
1351;DHT22;669;50.206;9.998;2024-03-23T11:38:04;12.80;1.00
1351;DHT22;669;50.206;9.998;2024-03-23T11:40:31;13.30;1.00
1351;DHT22;669;50.206;9.998;2024-03-23T11:43:01;13.40;1.00
1351;DHT22;669;50.206;9.998;2024-03-23T11:45:29;13.50;1.00
1351;DHT22;669;50.206;9.998;2024-03-23T11:48:04;13.60;1.00
1351;DHT22;669;50.206;9.998;2024-03-23T11:50:30;13.60;1.00
1351;DHT22;669;50.206;9.998;2024-03-23T11:53:07;13.10;1.00
1351;DHT22;669;50.206;9.998;2024-03-23T11:55:40;12.80;1.00
1351;DHT22;669;50.206;9.998;2024-03-23T11:58:08;12.50;1.00
1351;DHT22;669;50.206;9.998;2024-03-23T12:00:34;12.20;1.00
1351;DHT22;669;50.206;9.998;2024-03-23T12:03:01;11.60;1.00
1351;DHT22;669;50.206;9.998;2024-03-23T12:05:28;11.10;1.00
1351;DHT22;669;50.206;9.998;2024-03-23T12:07:55;10.60;1.00
1351;DHT22;669;50.206;9.998;2024-03-23T12:10:21;10.40;1.00
1351;DHT22;669;50.206;9.998;2024-03-23T12:12:59;9.90;1.00
1351;DHT22;669;50.206;9.998;2024-03-23T12:15:27;9.60;1.00
1351;DHT22;669;50.206;9.998;2024-03-23T12:18:06;9.30;1.00
1351;DHT22;669;50.206;9.998;2024-03-23T12:20:33;8.70;1.00
1351;DHT22;669;50.206;9.998;2024-03-23T12:23:10;8.00;1.00
1351;DHT22;669;50.206;9.998;2024-03-23T12:25:38;7.60;1.00
1351;DHT22;669;50.206;9.998;2024-03-23T12:28:05;7.20;1.00
1351;DHT22;669;50.206;9.998;2024-03-23T12:30:34;6.90;1.00
1351;DHT22;669;50.206;9.998;2024-03-23T12:33:02;6.80;1.00
1351;DHT22;669;50.206;9.998;2024-03-23T12:35:29;6.70;2.00
1351;DHT22;669;50.206;9.998;2024-03-23T12:37:56;6.80;2.30
1351;DHT22;669;50.206;9.998;2024-03-23T12:40:23;6.80;1.00
1351;DHT22;669;50.206;9.998;2024-03-23T12:42:49;6.90;1.00
1351;DHT22;669;50.206;9.998;2024-03-23T12:45:16;7.10;1.00
1351;DHT22;669;50.206;9.998;2024-03-23T12:47:43;7.10;1.00
1351;DHT22;669;50.206;9.998;2024-03-23T12:50:10;7.10;1.00
1351;DHT22;669;50.206;9.998;2024-03-23T12:52:37;7.10;1.00
1351;DHT22;669;50.206;9.998;2024-03-23T12:55:04;7.20;1.00
1351;DHT22;669;50.206;9.998;2024-03-23T12:57:32;7.40;1.00
1351;DHT22;669;50.206;9.998;2024-03-23T12:59:59;7.50;1.00
1351;DHT22;669;50.206;9.998;2024-03-23T13:02:26;7.60;1.00
1351;DHT22;669;50.206;9.998;2024-03-23T13:04:55;7.80;1.00
1351;DHT22;669;50.206;9.998;2024-03-23T13:07:22;7.90;1.00
1351;DHT22;669;50.206;9.998;2024-03-23T13:09:50;8.10;1.00
1351;DHT22;669;50.206;9.998;2024-03-23T13:12:17;8.60;1.00
1351;DHT22;669;50.206;9.998;2024-03-23T13:14:44;9.10;1.00
1351;DHT22;669;50.206;9.998;2024-03-23T13:17:10;9.60;1.00
1351;DHT22;669;50.206;9.998;2024-03-23T13:19:37;9.80;1.00
1351;DHT22;669;50.206;9.998;2024-03-23T13:22:05;10.10;1.00
1351;DHT22;669;50.206;9.998;2024-03-23T13:24:33;10.30;1.00
1351;DHT22;669;50.206;9.998;2024-03-23T13:26:58;10.20;1.00
1351;DHT22;669;50.206;9.998;2024-03-23T13:29:26;10.40;1.00
1351;DHT22;669;50.206;9.998;2024-03-23T13:31:52;10.60;1.00
1351;DHT22;669;50.206;9.998;2024-03-23T13:34:19;10.80;1.00
1351;DHT22;669;50.206;9.998;2024-03-23T13:36:46;11.00;1.00
1351;DHT22;669;50.206;9.998;2024-03-23T13:39:15;11.20;1.00
1351;DHT22;669;50.206;9.998;2024-03-23T13:41:42;11.30;1.00
1351;DHT22;669;50.206;9.998;2024-03-23T13:44:10;11.60;1.00
1351;DHT22;669;50.206;9.998;2024-03-23T13:46:37;11.70;1.00
1351;DHT22;669;50.206;9.998;2024-03-23T13:49:04;11.80;1.00
1351;DHT22;669;50.206;9.998;2024-03-23T13:51:30;12.00;1.00
1351;DHT22;669;50.206;9.998;2024-03-23T13:53:57;12.00;1.00
1351;DHT22;669;50.206;9.998;2024-03-23T13:56:28;12.10;1.00
1351;DHT22;669;50.206;9.998;2024-03-23T13:58:55;12.20;1.00
1351;DHT22;669;50.206;9.998;2024-03-23T14:01:22;12.20;1.00
1351;DHT22;669;50.206;9.998;2024-03-23T14:03:50;12.20;1.00
1351;DHT22;669;50.206;9.998;2024-03-23T14:06:16;12.40;1.00
1351;DHT22;669;50.206;9.998;2024-03-23T14:08:43;12.40;1.00
1351;DHT22;669;50.206;9.998;2024-03-23T14:11:09;12.10;1.00
1351;DHT22;669;50.206;9.998;2024-03-23T14:13:37;11.90;1.00
1351;DHT22;669;50.206;9.998;2024-03-23T14:16:04;11.70;1.00
1351;DHT22;669;50.206;9.998;2024-03-23T14:18:31;11.40;1.00
1351;DHT22;669;50.206;9.998;2024-03-23T14:20:59;11.20;1.00
1351;DHT22;669;50.206;9.998;2024-03-23T14:23:26;10.80;1.00
1351;DHT22;669;50.206;9.998;2024-03-23T14:25:53;10.50;1.00
1351;DHT22;669;50.206;9.998;2024-03-23T14:28:20;10.20;1.00
1351;DHT22;669;50.206;9.998;2024-03-23T14:30:49;10.00;1.00
1351;DHT22;669;50.206;9.998;2024-03-23T14:33:16;9.70;1.00
1351;DHT22;669;50.206;9.998;2024-03-23T14:35:42;9.50;1.00
1351;DHT22;669;50.206;9.998;2024-03-23T14:38:09;9.40;1.00
1351;DHT22;669;50.206;9.998;2024-03-23T14:40:35;8.40;1.00
1351;DHT22;669;50.206;9.998;2024-03-23T14:43:03;7.20;1.00
1351;DHT22;669;50.206;9.998;2024-03-23T14:45:29;6.10;1.00
1351;DHT22;669;50.206;9.998;2024-03-23T14:47:57;5.20;3.50
1351;DHT22;669;50.206;9.998;2024-03-23T14:50:24;4.80;6.00
1351;DHT22;669;50.206;9.998;2024-03-23T14:52:51;4.60;8.10
1351;DHT22;669;50.206;9.998;2024-03-23T14:55:17;4.50;8.70
1351;DHT22;669;50.206;9.998;2024-03-23T14:57:45;4.30;9.90
1351;DHT22;669;50.206;9.998;2024-03-23T15:00:11;4.20;9.80
1351;DHT22;669;50.206;9.998;2024-03-23T15:02:39;4.00;11.60
1351;DHT22;669;50.206;9.998;2024-03-23T15:05:07;3.90;11.90
1351;DHT22;669;50.206;9.998;2024-03-23T15:07:35;3.80;11.10
1351;DHT22;669;50.206;9.998;2024-03-23T15:10:02;3.60;12.50
1351;DHT22;669;50.206;9.998;2024-03-23T15:12:30;3.50;12.50
1351;DHT22;669;50.206;9.998;2024-03-23T15:14:58;3.40;12.40
1351;DHT22;669;50.206;9.998;2024-03-23T15:17:26;3.30;12.80
1351;DHT22;669;50.206;9.998;2024-03-23T15:19:52;3.30;13.00
1351;DHT22;669;50.206;9.998;2024-03-23T15:22:22;3.60;18.40
1351;DHT22;669;50.206;9.998;2024-03-23T15:24:48;4.10;17.70
1351;DHT22;669;50.206;9.998;2024-03-23T15:27:15;4.60;15.40
1351;DHT22;669;50.206;9.998;2024-03-23T15:29:41;4.90;13.70
1351;DHT22;669;50.206;9.998;2024-03-23T15:32:11;5.10;14.20
1351;DHT22;669;50.206;9.998;2024-03-23T15:34:38;5.30;13.60
1351;DHT22;669;50.206;9.998;2024-03-23T15:37:05;5.50;12.00
1351;DHT22;669;50.206;9.998;2024-03-23T15:39:32;5.50;12.40
1351;DHT22;669;50.206;9.998;2024-03-23T15:41:59;5.60;8.60
1351;DHT22;669;50.206;9.998;2024-03-23T15:44:25;5.60;10.40
1351;DHT22;669;50.206;9.998;2024-03-23T15:46:52;5.60;10.60
1351;DHT22;669;50.206;9.998;2024-03-23T15:49:18;5.50;11.60
1351;DHT22;669;50.206;9.998;2024-03-23T15:51:45;5.50;10.00
1351;DHT22;669;50.206;9.998;2024-03-23T15:54:11;5.50;11.50
1351;DHT22;669;50.206;9.998;2024-03-23T15:56:39;5.40;12.50
1351;DHT22;669;50.206;9.998;2024-03-23T15:59:05;5.30;13.00
1351;DHT22;669;50.206;9.998;2024-03-23T16:01:33;5.30;12.30
1351;DHT22;669;50.206;9.998;2024-03-23T16:03:59;5.20;12.70
1351;DHT22;669;50.206;9.998;2024-03-23T16:06:27;5.20;13.50
1351;DHT22;669;50.206;9.998;2024-03-23T16:08:53;5.10;12.00
1351;DHT22;669;50.206;9.998;2024-03-23T16:11:20;5.00;13.20
1351;DHT22;669;50.206;9.998;2024-03-23T16:13:47;5.10;13.50
1351;DHT22;669;50.206;9.998;2024-03-23T16:16:14;5.10;13.50
1351;DHT22;669;50.206;9.998;2024-03-23T16:18:42;5.10;13.10
1351;DHT22;669;50.206;9.998;2024-03-23T16:21:10;5.10;12.50
1351;DHT22;669;50.206;9.998;2024-03-23T16:23:36;5.00;12.00
1351;DHT22;669;50.206;9.998;2024-03-23T16:26:04;5.00;12.60
1351;DHT22;669;50.206;9.998;2024-03-23T16:28:31;4.90;12.20
1351;DHT22;669;50.206;9.998;2024-03-23T16:31:00;4.90;13.30
1351;DHT22;669;50.206;9.998;2024-03-23T16:33:28;4.90;12.50
1351;DHT22;669;50.206;9.998;2024-03-23T16:35:57;4.80;13.30
1351;DHT22;669;50.206;9.998;2024-03-23T16:38:24;4.80;13.50
1351;DHT22;669;50.206;9.998;2024-03-23T16:40:55;4.80;13.30
1351;DHT22;669;50.206;9.998;2024-03-23T16:43:22;4.80;13.30
1351;DHT22;669;50.206;9.998;2024-03-23T16:45:54;4.80;13.80
1351;DHT22;669;50.206;9.998;2024-03-23T16:48:22;4.80;13.90
1351;DHT22;669;50.206;9.998;2024-03-23T16:50:49;4.80;14.50
1351;DHT22;669;50.206;9.998;2024-03-23T16:53:15;4.80;14.70
1351;DHT22;669;50.206;9.998;2024-03-23T16:55:42;4.80;15.50
1351;DHT22;669;50.206;9.998;2024-03-23T16:58:08;4.80;15.70
1351;DHT22;669;50.206;9.998;2024-03-23T17:00:35;4.90;17.00
1351;DHT22;669;50.206;9.998;2024-03-23T17:03:02;4.90;16.70
1351;DHT22;669;50.206;9.998;2024-03-23T17:05:36;4.90;16.60
1351;DHT22;669;50.206;9.998;2024-03-23T17:08:02;4.90;17.30
1351;DHT22;669;50.206;9.998;2024-03-23T17:10:29;4.90;17.70
1351;DHT22;669;50.206;9.998;2024-03-23T17:12:55;4.90;18.50
1351;DHT22;669;50.206;9.998;2024-03-23T17:15:22;4.90;18.30
1351;DHT22;669;50.206;9.998;2024-03-23T17:17:48;4.90;18.20
1351;DHT22;669;50.206;9.998;2024-03-23T17:20:15;4.90;17.80
1351;DHT22;669;50.206;9.998;2024-03-23T17:22:43;4.80;17.90
1351;DHT22;669;50.206;9.998;2024-03-23T17:25:10;4.90;18.70
1351;DHT22;669;50.206;9.998;2024-03-23T17:27:36;4.80;17.80
1351;DHT22;669;50.206;9.998;2024-03-23T17:30:04;4.70;18.50
1351;DHT22;669;50.206;9.998;2024-03-23T17:32:30;4.70;19.40